Terminal Aerodrome Forecast
Issued by NWS Sioux Falls, SD

Home | Current Version | Previous Version | Text Only | Print | Product List | Glossary On
Versions: 1 2 3 4 5 6 7 8 9 10 11 12 13 14 15 16 17 18
000
FTUS43 KFSD 242320
TAFSUX
TAF
KSUX 242320Z 2500/2524 18012KT P6SM BKN080
     FM250500 32004KT P6SM SCT200
     FM251100 36007KT P6SM VCSH BKN090
     FM251400 03010KT P6SM VCSH OVC015
     FM251500 03011KT 5SM SHRA OVC015
     FM251700 01012G16KT 5SM RA OVC008=

USA.gov is the U.S. government's official web portal to all federal, state and local government web resources and services.